Главная страница
METAR-TAF:

METAR-TAF

Аэропорты :

Cape Parry, Северо-Западные Территории, Канада

широта: 70-06N, долгота: 124-43W, высота над уровнем моря: 87 м

Текущие метеонаблюдения

Эта сводка был подготовлена 15 минут назад, в 04:14 UTC
Ветер 15 Узел от западный
Температура -15°C
Влажность 92%
Давление 996 hPa
небольшая облачность на высоте 900 фута
Отдельные облака на высоте 1800 фута
Рассеянная облачность на высоте 2200 фута

METAR: CZCP 230414Z AUTO 28015KT ////SM //// FEW009 SCT018 BKN022 M15/M16 A2941

Время: 21:29 (04:29 UTC)


TAF: отсутствует

Метеонаблюдения и прогнозы для более 4000 аэропортов (сводки METAR и TAF).

Имеющиеся станции представлены на карте желтыми и красными точками.

Чтобы увидеть название станции, наведите на нее мышь.

Затем щелкните, чтобы увидеть метеонаблюдения и метеопрогнозы.

Управление картой: чтобы увеличить масштаб, щелкните зеленые кнопки с черным крестиком; чтобы уменьшить масштаб, щелкните зеленую кнопку с тире; для просмотра соседних карт щелкайте зеленые стрелки.


METAR-TAF: